Camby, Indiana
Current Conditions -  °F | °C
As of 6:54 PM on Friday 24 Oct 2014 (Local Time) from KIND Reporting Station
Broken Clouds Broken Clouds  
Wind Chill: 59°   Ceiling: 22000
Heat Index: 59°   Visibility: 10mi
Dew Point: 51°   Wind: 8mph
Humidity: 75%   Direction: 260°W
Pressure: 30.02"   Gusts: NA
Location:  39.66°N, 86.32°W
Report Text: KIND 242254Z 26007KT 10SM SCT037 BKN220 15/11 A3002 RMK AO2 SLP166 T01500106
Loading
Personal Weather Stations






























Interactive Weather Map
Tropical Storm Tracking
New forecast layout! Learn more

10-Day Weather Forecast

Advertisements
Track Severe Weather on mobile